Time;durP1;ratioP1;P1;durP2;ratioP2;P2;SDS_P1;SDS_P2;PMS_P1;PMS_P2;Temp;Humidity;BMP_temperature;BMP_pressure;BME280_temperature;BME280_humidity;BME280_pressure;Samples;Min_cycle;Max_cycle;Signal;HPM_P1;HPM_P2
2022/04/11 00:02:28;;;;;;;0.20;0.10;;;12.00;99.90;;;;;;25408569;23;20461;-73
2022/04/11 00:12:37;;;;;;;0.20;0.10;;;11.80;99.90;;;;;;25405831;23;20195;-73
2022/04/11 00:22:41;;;;;;;0.20;0.10;;;11.70;99.90;;;;;;25404774;23;20244;-73
2022/04/11 00:32:46;;;;;;;0.20;0.10;;;11.60;99.90;;;;;;25408372;23;20184;-74
2022/04/11 00:42:50;;;;;;;0.20;0.10;;;11.50;99.90;;;;;;25407604;23;20195;-74
2022/04/11 00:52:59;;;;;;;0.20;0.00;;;11.70;99.90;;;;;;25415077;23;20349;-74
2022/04/11 01:03:04;;;;;;;0.20;0.10;;;11.70;99.90;;;;;;25415212;23;20191;-74
2022/04/11 01:13:09;;;;;;;0.20;0.10;;;11.90;99.90;;;;;;25414812;23;20511;-75
2022/04/11 01:23:14;;;;;;;0.20;0.10;;;12.00;99.90;;;;;;25414721;23;20192;-73
2022/04/11 01:33:20;;;;;;;0.20;0.10;;;12.20;99.90;;;;;;25415238;23;20210;-74
2022/04/11 01:43:26;;;;;;;0.20;0.10;;;11.90;99.90;;;;;;25413589;23;20203;-73
2022/04/11 01:53:30;;;;;;;0.20;0.10;;;12.10;99.90;;;;;;25388420;23;20206;-74
2022/04/11 02:03:35;;;;;;;0.20;0.10;;;11.90;99.90;;;;;;25413186;23;20269;-74
2022/04/11 02:13:38;;;;;;;0.20;0.10;;;11.60;99.90;;;;;;25412548;23;20274;-74
2022/04/11 02:23:46;;;;;;;0.20;0.10;;;11.20;99.90;;;;;;25412196;23;20286;-76
2022/04/11 02:33:50;;;;;;;0.20;0.10;;;11.00;99.90;;;;;;25410967;23;20248;-73
2022/04/11 02:43:55;;;;;;;0.20;0.00;;;10.90;99.90;;;;;;25411358;23;20472;-73
2022/04/11 02:54:01;;;;;;;0.20;0.10;;;10.80;99.90;;;;;;25409292;23;20191;-74
2022/04/11 03:04:07;;;;;;;0.20;0.00;;;10.50;99.90;;;;;;25411325;23;20242;-73
2022/04/11 03:14:11;;;;;;;0.20;0.10;;;10.60;99.90;;;;;;25409623;23;20206;-73
2022/04/11 03:24:16;;;;;;;0.20;0.10;;;10.50;99.90;;;;;;25408391;23;20222;-73
2022/04/11 03:34:20;;;;;;;0.20;0.10;;;10.40;99.90;;;;;;25408711;23;20175;-72
2022/04/11 03:44:25;;;;;;;0.20;0.00;;;10.30;99.90;;;;;;25410213;23;20192;-72
2022/04/11 03:54:28;;;;;;;0.20;0.00;;;10.20;99.90;;;;;;25409485;23;20214;-75
2022/04/11 04:04:34;;;;;;;0.20;0.10;;;10.30;99.90;;;;;;25407362;23;20226;-72
2022/04/11 04:14:37;;;;;;;0.20;0.10;;;10.20;99.90;;;;;;25405991;23;20440;-73
2022/04/11 04:24:43;;;;;;;0.20;0.10;;;10.40;99.90;;;;;;25402388;23;20199;-73
2022/04/11 04:34:46;;;;;;;0.20;0.00;;;10.20;99.90;;;;;;25407513;23;20479;-73
2022/04/11 04:44:51;;;;;;;0.20;0.10;;;10.30;99.90;;;;;;25404047;23;20199;-74
2022/04/11 04:54:55;;;;;;;0.20;0.10;;;10.20;99.90;;;;;;25406858;23;20203;-73
2022/04/11 05:05:06;;;;;;;0.20;0.00;;;10.20;99.90;;;;;;25403371;23;20195;-73
2022/04/11 05:15:11;;;;;;;0.20;0.10;;;10.10;99.90;;;;;;25405078;23;20195;-74
2022/04/11 05:25:16;;;;;;;0.20;0.10;;;10.10;99.90;;;;;;25405523;23;20187;-75
2022/04/11 05:35:20;;;;;;;0.20;0.10;;;10.00;99.90;;;;;;25407713;23;20171;-76
2022/04/11 05:45:25;;;;;;;0.20;0.00;;;9.90;99.90;;;;;;25410027;23;20517;-76
2022/04/11 05:55:29;;;;;;;0.20;0.00;;;10.20;99.90;;;;;;25408416;23;20208;-77
2022/04/11 06:05:37;;;;;;;0.20;0.00;;;10.40;99.90;;;;;;25411390;23;20203;-76
2022/04/11 06:15:41;;;;;;;0.20;0.00;;;11.00;99.90;;;;;;25407912;23;20192;-73
2022/04/11 06:25:46;;;;;;;0.20;0.10;;;11.40;99.90;;;;;;25410497;23;20190;-76
2022/04/11 06:35:50;;;;;;;0.20;0.10;;;12.00;99.90;;;;;;25405632;23;20172;-78
2022/04/11 06:45:55;;;;;;;0.20;0.10;;;12.70;99.90;;;;;;25405869;23;20468;-77
2022/04/11 06:56:00;;;;;;;0.20;0.10;;;13.10;99.90;;;;;;25404350;23;20202;-78
2022/04/11 07:06:05;;;;;;;0.20;0.00;;;13.60;99.90;;;;;;25404205;23;20255;-77
2022/04/11 07:16:09;;;;;;;0.20;0.00;;;14.10;99.90;;;;;;25402744;23;20199;-78
2022/04/11 07:26:15;;;;;;;0.20;0.03;;;14.20;99.90;;;;;;25402874;23;20263;-76
2022/04/11 07:36:18;;;;;;;0.20;0.10;;;14.80;99.90;;;;;;25404566;23;20206;-77
2022/04/11 07:46:23;;;;;;;0.20;0.00;;;15.00;99.90;;;;;;25399564;23;20203;-75
2022/04/11 07:56:28;;;;;;;0.20;0.10;;;15.30;99.90;;;;;;25395200;23;20526;-78
2022/04/11 08:06:34;;;;;;;0.20;0.10;;;15.50;99.90;;;;;;25394568;23;20191;-79
2022/04/11 08:16:37;;;;;;;0.20;0.10;;;15.50;99.90;;;;;;25399790;23;20307;-74
2022/04/11 08:26:43;;;;;;;0.20;0.10;;;15.70;99.90;;;;;;25397851;23;20188;-74
2022/04/11 08:36:47;;;;;;;0.20;0.10;;;15.90;99.90;;;;;;25400197;23;20184;-77
2022/04/11 08:46:53;;;;;;;0.20;0.10;;;16.00;99.90;;;;;;25387476;23;20198;-75
2022/04/11 08:56:57;;;;;;;0.20;0.00;;;16.20;99.90;;;;;;25387990;23;20484;-76
2022/04/11 09:07:02;;;;;;;0.20;0.00;;;16.40;99.90;;;;;;25386596;23;20600;-74
2022/04/11 09:17:06;;;;;;;0.20;0.10;;;16.70;99.90;;;;;;25395199;23;20258;-77
2022/04/11 09:27:11;;;;;;;0.20;0.10;;;16.90;99.90;;;;;;25392393;23;20195;-72
2022/04/11 09:37:15;;;;;;;0.20;0.00;;;16.90;99.90;;;;;;25391732;23;20190;-72
2022/04/11 09:47:22;;;;;;;0.20;0.10;;;17.00;99.90;;;;;;25393240;23;20213;-71
2022/04/11 09:57:31;;;;;;;0.20;0.00;;;17.10;99.90;;;;;;25392348;23;20207;-70
2022/04/11 10:07:38;;;;;;;0.20;0.00;;;17.30;99.90;;;;;;25391194;23;20209;-74
2022/04/11 10:17:42;;;;;;;0.20;0.00;;;17.40;99.90;;;;;;25389646;23;20206;-75
2022/04/11 10:28:15;;;;;;;0.20;0.10;;;17.60;99.90;;;;;;25391402;23;20206;-77
2022/04/11 10:38:20;;;;;;;0.20;0.10;;;17.80;99.90;;;;;;25387367;23;20209;-76
2022/04/11 10:49:08;;;;;;;0.20;0.00;;;18.30;99.90;;;;;;25388035;23;20199;-73
2022/04/11 10:59:14;;;;;;;0.20;0.10;;;18.30;99.90;;;;;;25387910;23;20527;-74
2022/04/11 11:09:20;;;;;;;0.20;0.10;;;19.50;99.90;;;;;;25385174;23;20223;-74
2022/04/11 11:19:24;;;;;;;0.20;0.00;;;20.00;99.90;;;;;;25388490;23;20210;-71
2022/04/11 11:29:31;;;;;;;0.20;0.10;;;20.60;99.90;;;;;;25388388;23;20719;-69
2022/04/11 11:49:44;;;;;;;0.20;0.10;;;20.50;99.90;;;;;;25426504;23;20227;-69
2022/04/11 11:59:49;;;;;;;0.20;0.10;;;20.80;99.90;;;;;;25400693;23;20400;-68
2022/04/11 12:09:55;;;;;;;0.20;0.10;;;21.60;99.90;;;;;;25405534;23;20203;-70
2022/04/11 12:20:08;;;;;;;0.37;0.37;;;21.40;99.90;;;;;;25403448;23;20240;-70
2022/04/11 12:30:14;;;;;;;0.20;0.10;;;21.20;99.90;;;;;;25404765;23;20198;-70
2022/04/11 12:40:19;;;;;;;0.20;0.00;;;22.50;99.90;;;;;;25408814;23;20179;-69
2022/04/11 12:50:41;;;;;;;0.20;0.10;;;21.80;99.90;;;;;;25414913;23;20199;-69
2022/04/11 13:00:57;;;;;;;0.20;0.00;;;21.40;99.90;;;;;;25412979;23;20174;-68
2022/04/11 13:11:03;;;;;;;0.77;0.77;;;21.00;99.90;;;;;;25410545;23;20203;-77
2022/04/11 13:21:07;;;;;;;0.20;0.10;;;21.30;99.90;;;;;;25409749;23;20222;-78
2022/04/11 13:31:12;;;;;;;0.20;0.10;;;21.00;99.90;;;;;;25408437;23;20263;-69
2022/04/11 13:41:16;;;;;;;0.20;0.00;;;20.30;99.90;;;;;;25411382;23;20164;-70
2022/04/11 13:51:22;;;;;;;0.50;0.33;;;20.40;99.90;;;;;;25407873;23;20266;-74
2022/04/11 14:01:46;;;;;;;0.20;0.00;;;21.60;99.90;;;;;;25407964;23;20200;-76
2022/04/11 14:11:52;;;;;;;0.20;0.00;;;21.20;99.90;;;;;;25407775;23;20191;-71
2022/04/11 14:21:56;;;;;;;0.20;0.00;;;20.20;99.90;;;;;;25405480;23;20195;-71
2022/04/11 14:32:01;;;;;;;0.20;0.00;;;21.20;99.90;;;;;;25404154;23;20214;-72
2022/04/11 14:42:05;;;;;;;0.20;0.00;;;22.80;99.90;;;;;;25404723;23;20204;-74
2022/04/11 14:52:11;;;;;;;0.20;0.10;;;22.20;99.90;;;;;;25405539;23;20221;-71
2022/04/11 15:02:16;;;;;;;0.20;0.10;;;20.80;99.90;;;;;;25406369;23;20167;-71
2022/04/11 15:12:22;;;;;;;0.20;0.10;;;22.30;99.90;;;;;;25405854;23;20203;-72
2022/04/11 15:22:28;;;;;;;0.20;0.10;;;20.90;99.90;;;;;;25400940;23;20187;-72
2022/04/11 15:32:33;;;;;;;0.20;0.00;;;21.80;99.90;;;;;;25403901;23;20306;-71
2022/04/11 15:42:37;;;;;;;0.20;0.10;;;21.60;99.90;;;;;;25401468;23;20231;-72
2022/04/11 15:52:42;;;;;;;0.20;0.00;;;20.20;99.90;;;;;;25402615;23;20237;-70
2022/04/11 16:02:46;;;;;;;0.20;0.00;;;19.00;99.90;;;;;;25401758;23;20190;-70
2022/04/11 16:12:51;;;;;;;0.20;0.10;;;18.30;99.90;;;;;;25403686;23;20229;-71
2022/04/11 16:22:55;;;;;;;0.20;0.10;;;17.60;99.90;;;;;;25394505;23;20171;-71
2022/04/11 16:33:00;;;;;;;0.20;0.10;;;17.60;99.90;;;;;;25398291;23;20476;-73
2022/04/11 16:43:04;;;;;;;0.20;0.00;;;17.40;99.90;;;;;;25397708;23;20195;-73
2022/04/11 16:53:09;;;;;;;0.20;0.10;;;17.50;99.90;;;;;;25397772;23;20203;-69
2022/04/11 17:03:13;;;;;;;0.83;0.73;;;17.40;99.90;;;;;;25396012;23;20266;-68
2022/04/11 17:13:19;;;;;;;0.20;0.00;;;16.70;99.90;;;;;;25398553;23;20616;-69
2022/04/11 17:23:23;;;;;;;0.20;0.10;;;16.20;99.90;;;;;;25396564;23;20172;-68
2022/04/11 17:33:28;;;;;;;0.20;0.10;;;15.80;99.90;;;;;;25402102;23;20199;-69
2022/04/11 17:43:32;;;;;;;0.20;0.10;;;15.60;99.90;;;;;;25406709;23;20194;-68
2022/04/11 17:53:37;;;;;;;0.20;0.10;;;15.60;99.90;;;;;;25381904;23;20194;-68
2022/04/11 18:03:42;;;;;;;0.20;0.10;;;15.60;99.90;;;;;;25412691;23;20167;-69
2022/04/11 18:13:48;;;;;;;0.20;0.10;;;15.20;99.90;;;;;;25401637;23;20262;-70
2022/04/11 18:23:54;;;;;;;0.20;0.10;;;15.20;99.90;;;;;;25413071;23;20176;-68
2022/04/11 18:34:03;;;;;;;0.20;0.10;;;15.00;99.90;;;;;;25410387;23;20372;-68
2022/04/11 18:44:07;;;;;;;0.20;0.10;;;15.10;99.90;;;;;;25411074;23;20222;-70
2022/04/11 18:54:12;;;;;;;0.20;0.10;;;14.90;99.90;;;;;;25352658;23;20207;-72
2022/04/11 19:04:17;;;;;;;0.20;0.00;;;14.80;99.90;;;;;;25200504;23;20204;-73
2022/04/11 19:14:22;;;;;;;0.20;0.00;;;14.80;99.90;;;;;;25167712;23;20207;-72
2022/04/11 19:24:26;;;;;;;0.20;0.00;;;14.70;99.90;;;;;;25168309;23;20193;-73
2022/04/11 19:34:31;;;;;;;0.20;0.00;;;14.70;99.90;;;;;;25168832;23;20192;-75
2022/04/11 19:44:35;;;;;;;0.20;0.10;;;14.70;99.90;;;;;;25167726;23;20184;-73
2022/04/11 19:54:41;;;;;;;0.20;0.10;;;14.80;99.90;;;;;;25168429;23;20224;-73
2022/04/11 20:04:44;;;;;;;0.20;0.10;;;14.80;99.90;;;;;;25275647;23;20228;-74
2022/04/11 20:14:50;;;;;;;0.20;0.10;;;14.70;99.90;;;;;;25288944;23;20718;-73
2022/04/11 20:24:53;;;;;;;0.20;0.10;;;14.70;99.90;;;;;;25287806;23;20881;-73
2022/04/11 20:34:59;;;;;;;0.20;0.10;;;14.70;99.90;;;;;;25288281;23;20224;-74
2022/04/11 20:45:03;;;;;;;0.20;0.10;;;14.80;99.90;;;;;;25288019;23;20180;-73
2022/04/11 21:05:30;;;;;;;0.20;0.10;;;14.90;99.90;;;;;;25295069;23;20220;-75
2022/04/11 21:15:35;;;;;;;0.20;0.00;;;15.00;99.90;;;;;;25295272;23;20195;-74
2022/04/11 21:25:40;;;;;;;0.20;0.10;;;14.90;99.90;;;;;;25295379;23;20172;-75
2022/04/11 21:35:45;;;;;;;0.20;0.10;;;14.90;99.90;;;;;;25295478;23;20188;-74
2022/04/11 21:45:49;;;;;;;0.20;0.03;;;14.90;99.90;;;;;;25270654;23;20328;-74
2022/04/11 21:55:54;;;;;;;0.20;0.07;;;14.80;99.90;;;;;;25295604;23;20335;-73
2022/04/11 22:05:58;;;;;;;0.20;0.10;;;14.80;99.90;;;;;;25293255;23;20215;-75
2022/04/11 22:16:03;;;;;;;0.20;0.00;;;14.90;99.90;;;;;;25294520;23;20199;-74
2022/04/11 22:26:09;;;;;;;0.20;0.10;;;14.90;99.90;;;;;;25290168;23;20269;-75
2022/04/11 22:36:14;;;;;;;0.20;0.10;;;14.90;99.90;;;;;;25294174;23;20263;-75
2022/04/11 22:46:18;;;;;;;0.20;0.10;;;14.80;99.90;;;;;;25297711;23;20191;-76
2022/04/11 22:56:23;;;;;;;0.20;0.03;;;14.70;99.90;;;;;;25298008;23;20815;-75
2022/04/11 23:06:27;;;;;;;0.20;0.00;;;14.70;99.90;;;;;;25294647;23;20196;-76
2022/04/11 23:16:32;;;;;;;0.20;0.10;;;14.80;99.90;;;;;;25295578;23;20227;-72
2022/04/11 23:26:36;;;;;;;0.20;0.10;;;14.80;99.90;;;;;;25294031;23;20222;-72
2022/04/11 23:36:41;;;;;;;0.20;0.00;;;14.80;99.90;;;;;;25293814;23;20227;-80
2022/04/11 23:46:45;;;;;;;0.20;0.10;;;14.80;99.90;;;;;;25293992;23;20164;-81
2022/04/11 23:56:50;;;;;;;0.20;0.10;;;14.70;99.90;;;;;;25293737;23;20225;-80
